Time;durP1;ratioP1;P1;durP2;ratioP2;P2;SDS_P1;SDS_P2;PMS_P1;PMS_P2;Temp;Humidity;BMP_temperature;BMP_pressure;BME280_temperature;BME280_humidity;BME280_pressure;Samples;Min_cycle;Max_cycle;Signal;HPM_P1;HPM_P2
2022/03/13 00:01:41;;;;;;;12.87;8.50;;;;;;;-4.10;80.95;101854.44;5031678;28;20025;-76
2022/03/13 00:04:11;;;;;;;15.43;8.90;;;;;;;-4.08;81.08;101850.44;5032396;28;20041;-77
2022/03/13 00:06:38;;;;;;;16.30;9.17;;;;;;;-3.88;80.94;101864.50;5032294;28;20476;-77
2022/03/13 00:09:09;;;;;;;13.23;8.47;;;;;;;-4.08;80.89;101817.66;5032166;28;20025;-77
2022/03/13 00:11:35;;;;;;;17.70;9.73;;;;;;;-4.04;80.31;101807.94;5031912;28;20025;-79
2022/03/13 00:14:02;;;;;;;15.90;9.40;;;;;;;-3.75;80.34;101841.59;5031642;28;20103;-78
2022/03/13 00:16:29;;;;;;;12.77;8.63;;;;;;;-3.70;79.53;101838.00;5032260;28;20052;-79
2022/03/13 00:18:56;;;;;;;16.73;8.87;;;;;;;-3.93;80.03;101793.31;5032056;28;20033;-78
2022/03/13 00:21:22;;;;;;;13.27;8.27;;;;;;;-3.70;79.68;101827.91;5031772;28;20037;-78
2022/03/13 00:23:47;;;;;;;14.60;8.53;;;;;;;-3.74;79.54;101841.78;5031732;28;20038;-77
2022/03/13 00:26:15;;;;;;;12.27;7.43;;;;;;;-3.90;79.00;101849.19;5031368;28;20040;-77
2022/03/13 00:28:42;;;;;;;14.50;8.33;;;;;;;-4.18;79.96;101829.03;5031724;28;20057;-76
2022/03/13 00:31:07;;;;;;;12.43;7.63;;;;;;;-4.03;79.90;101857.69;5032023;28;20036;-83
2022/03/13 00:33:33;;;;;;;15.33;9.07;;;;;;;-4.20;80.74;101830.47;5014134;28;20033;-84
2022/03/13 00:35:59;;;;;;;16.37;9.67;;;;;;;-3.99;80.41;101844.69;5013756;28;20036;-77
2022/03/13 00:38:25;;;;;;;15.67;8.37;;;;;;;-4.19;80.93;101784.34;5013723;28;20033;-77
2022/03/13 00:40:55;;;;;;;13.70;8.67;;;;;;;-4.07;80.17;101803.44;5014032;28;20026;-76
2022/03/13 00:43:23;;;;;;;13.50;8.97;;;;;;;-3.80;80.16;101838.56;5031381;28;20435;-76
2022/03/13 00:45:49;;;;;;;19.47;9.93;;;;;;;-3.75;79.79;101823.91;5031524;28;20029;-79
2022/03/13 00:48:16;;;;;;;14.33;9.77;;;;;;;-3.80;79.98;101813.31;5028294;28;20062;-85
2022/03/13 00:50:41;;;;;;;16.87;9.00;;;;;;;-4.01;79.97;101783.97;5013773;28;20137;-78
2022/03/13 00:53:07;;;;;;;15.30;8.77;;;;;;;-3.83;80.45;101824.69;5031375;28;20539;-77
2022/03/13 00:55:33;;;;;;;14.63;8.53;;;;;;;-3.77;79.96;101827.91;5030164;28;20030;-77
2022/03/13 00:57:59;;;;;;;13.00;8.63;;;;;;;-3.69;80.50;101831.31;5026398;28;20535;-78
2022/03/13 01:00:25;;;;;;;18.30;9.30;;;;;;;-3.77;81.13;101818.69;5029933;28;20040;-78
2022/03/13 01:02:50;;;;;;;15.40;8.97;;;;;;;-3.96;80.35;101794.63;5030132;28;20509;-78
2022/03/13 01:05:26;;;;;;;15.40;9.00;;;;;;;-3.96;80.29;101837.50;5030513;28;20030;-79
2022/03/13 01:07:57;;;;;;;14.07;8.20;;;;;;;-4.36;80.57;101848.84;5008827;28;20470;-80
2022/03/13 01:10:23;;;;;;;15.30;8.60;;;;;;;-4.57;81.51;101835.47;5007243;28;20034;-83
2022/03/13 01:12:50;;;;;;;13.43;8.67;;;;;;;-4.50;81.94;101838.72;5008058;28;20026;-91
2022/03/13 01:15:16;;;;;;;15.60;8.77;;;;;;;-4.70;82.58;101789.34;4991594;28;20038;-78
2022/03/13 01:17:43;;;;;;;14.50;8.30;;;;;;;-4.38;82.68;101823.41;4990957;28;20030;-81
2022/03/13 01:20:21;;;;;;;16.00;9.00;;;;;;;-4.36;82.50;101825.22;4991430;28;20064;-79
2022/03/13 01:22:48;;;;;;;16.87;9.93;;;;;;;-4.15;81.91;101840.38;5007436;28;20037;-79
2022/03/13 01:25:13;;;;;;;16.03;8.03;;;;;;;-3.97;81.57;101838.22;5007884;28;20038;-84
2022/03/13 01:27:40;;;;;;;17.93;8.63;;;;;;;-4.05;80.94;101812.06;4991550;28;20038;-83
2022/03/13 01:30:06;;;;;;;13.03;8.13;;;;;;;-3.91;80.46;101827.19;4983838;28;20517;-76
2022/03/13 01:32:32;;;;;;;16.43;8.97;;;;;;;-3.82;80.47;101834.06;4989326;28;20085;-77
2022/03/13 01:34:59;;;;;;;16.70;9.10;;;;;;;-4.02;80.90;101796.41;5007566;28;20034;-75
2022/03/13 01:37:40;;;;;;;16.53;8.67;;;;;;;-3.78;80.89;101828.63;5007268;28;20420;-75
2022/03/13 01:40:10;;;;;;;16.07;9.00;;;;;;;-4.14;80.70;101774.06;5008205;28;20863;-77
2022/03/13 01:42:36;;;;;;;17.30;8.77;;;;;;;-3.74;80.67;101831.69;5010543;28;20022;-76
2022/03/13 01:45:03;;;;;;;14.17;8.77;;;;;;;-3.73;79.63;101819.97;5010601;28;20041;-75
2022/03/13 01:47:29;;;;;;;14.63;8.97;;;;;;;-3.64;79.51;101831.13;5028433;28;20036;-76
2022/03/13 01:49:55;;;;;;;15.60;9.07;;;;;;;-3.80;79.81;101805.75;5029219;28;20037;-77
2022/03/13 01:52:25;;;;;;;16.87;8.80;;;;;;;-3.78;79.47;101829.50;5000657;28;20416;-76
2022/03/13 01:54:51;;;;;;;15.40;8.37;;;;;;;-4.03;79.92;101803.06;5011889;28;20030;-76
2022/03/13 01:57:19;;;;;;;16.47;9.27;;;;;;;-3.90;80.48;101813.88;5009583;28;20833;-76
2022/03/13 01:59:49;;;;;;;14.80;8.83;;;;;;;-3.74;80.21;101824.13;5008897;28;20084;-76
2022/03/13 02:02:15;;;;;;;13.13;8.63;;;;;;;-3.80;79.92;101827.53;5008734;28;20280;-74
2022/03/13 02:04:41;;;;;;;17.83;8.27;;;;;;;-3.78;80.41;101834.56;5008909;28;20036;-75
2022/03/13 02:07:06;;;;;;;16.07;9.07;;;;;;;-3.79;81.00;101847.94;5008749;28;20448;-75
2022/03/13 02:09:33;;;;;;;18.43;9.23;;;;;;;-3.81;80.88;101828.28;5008773;28;20029;-75
2022/03/13 02:11:59;;;;;;;18.67;9.30;;;;;;;-3.84;80.48;101826.28;4988402;28;20117;-75
2022/03/13 02:14:24;;;;;;;15.23;9.43;;;;;;;-3.97;81.26;101835.69;5009487;28;20105;-75
2022/03/13 02:16:52;;;;;;;20.10;8.93;;;;;;;-3.99;80.80;101830.44;5008448;28;20032;-75
2022/03/13 02:19:17;;;;;;;15.03;9.27;;;;;;;-4.99;80.93;101707.84;5012329;28;20036;-75
2022/03/13 02:21:44;;;;;;;17.93;9.60;;;;;;;-4.77;81.67;101780.19;5020114;28;20116;-75
2022/03/13 02:24:15;;;;;;;15.20;9.33;;;;;;;-4.46;82.18;101838.34;5029100;28;20476;-75
2022/03/13 02:26:42;;;;;;;16.20;9.20;;;;;;;-4.47;82.29;101818.94;5028777;28;20061;-75
2022/03/13 02:29:12;;;;;;;16.50;10.17;;;;;;;-4.29;82.79;101830.28;5027767;28;20032;-75
2022/03/13 02:31:37;;;;;;;16.58;9.68;;;;;;;-4.30;82.00;101815.88;5028687;28;20076;-76
2022/03/13 02:34:08;;;;;;;15.43;9.20;;;;;;;-4.43;82.50;101788.31;5028800;28;20038;-74
2022/03/13 02:36:36;;;;;;;18.77;9.87;;;;;;;-4.18;82.45;101824.88;5011746;28;20022;-75
2022/03/13 02:39:07;;;;;;;14.17;8.73;;;;;;;-4.19;82.24;101827.22;5010876;28;20406;-77
2022/03/13 02:41:33;;;;;;;18.13;9.70;;;;;;;-4.44;82.75;101794.97;5029107;28;20025;-76
2022/03/13 02:43:59;;;;;;;17.80;9.73;;;;;;;-4.48;82.53;101819.66;5028889;28;20017;-78
2022/03/13 02:46:47;;;;;;;16.83;10.13;;;;;;;-4.51;83.44;101826.84;5028725;28;20026;-75
2022/03/13 02:49:33;;;;;;;19.20;10.57;;;;;;;-4.63;83.71;101818.72;5012751;28;20071;-74
2022/03/13 02:52:04;;;;;;;16.40;10.20;;;;;;;-4.69;84.47;101818.88;4951951;28;20094;-74
2022/03/13 02:54:30;;;;;;;18.10;10.73;;;;;;;-4.96;85.15;101773.66;4935532;28;20043;-74
2022/03/13 02:56:57;;;;;;;16.43;10.43;;;;;;;-5.05;85.17;101766.81;4952013;28;20125;-73
2022/03/13 02:59:22;;;;;;;21.43;11.73;;;;;;;-4.87;85.89;101800.84;4927772;29;20053;-75
2022/03/13 03:01:48;;;;;;;20.63;10.70;;;;;;;-4.76;86.48;101814.75;4952165;28;20047;-74
2022/03/13 03:04:15;;;;;;;19.37;10.80;;;;;;;-4.78;86.50;101803.56;4951738;28;20031;-74
2022/03/13 03:06:53;;;;;;;19.47;10.90;;;;;;;-4.70;86.57;101812.03;4951619;28;20035;-76
2022/03/13 03:09:19;;;;;;;19.97;10.73;;;;;;;-4.68;86.56;101807.22;4951628;28;20031;-75
2022/03/13 03:11:45;;;;;;;17.10;11.20;;;;;;;-4.92;87.25;101775.81;4951798;28;20534;-76
2022/03/13 03:14:11;;;;;;;18.87;11.00;;;;;;;-4.91;86.88;101772.59;4935548;28;20027;-78
2022/03/13 03:16:37;;;;;;;15.83;10.10;;;;;;;-4.83;87.01;101781.97;4935805;28;20125;-76
2022/03/13 03:19:02;;;;;;;18.77;10.87;;;;;;;-4.72;86.55;101804.31;4927471;28;20126;-76
2022/03/13 03:21:28;;;;;;;19.40;11.60;;;;;;;-4.85;86.40;101790.94;4932444;28;20028;-75
2022/03/13 03:23:53;;;;;;;17.07;9.77;;;;;;;-4.73;86.63;101799.09;5002379;28;20030;-76
2022/03/13 03:26:19;;;;;;;20.37;11.20;;;;;;;-4.87;86.63;101779.81;4995225;28;20065;-77
2022/03/13 03:28:45;;;;;;;19.17;10.50;;;;;;;-4.74;86.26;101800.69;5012448;28;20025;-78
2022/03/13 03:31:10;;;;;;;16.87;10.90;;;;;;;-4.82;85.98;101787.91;5010078;28;20061;-77
2022/03/13 03:33:35;;;;;;;18.53;11.40;;;;;;;-4.94;85.77;101752.09;5012059;28;20025;-77
2022/03/13 03:36:01;;;;;;;16.97;11.07;;;;;;;-4.67;85.61;101794.78;5023062;28;20035;-77
2022/03/13 03:38:26;;;;;;;16.07;9.17;;;;;;;-4.72;85.40;101806.81;5032149;28;20844;-76
2022/03/13 03:40:52;;;;;;;20.37;11.37;;;;;;;-4.96;86.15;101783.72;5003424;28;20091;-76
2022/03/13 03:43:17;;;;;;;17.57;11.00;;;;;;;-4.97;86.36;101777.81;5012135;28;20400;-78
2022/03/13 03:45:43;;;;;;;20.83;12.50;;;;;;;-4.97;86.43;101774.38;5011673;28;20478;-76
2022/03/13 03:48:08;;;;;;;19.43;12.23;;;;;;;-4.86;86.70;101794.19;5012151;28;20057;-76
2022/03/13 03:50:35;;;;;;;21.90;13.47;;;;;;;-4.90;87.10;101792.03;5014458;28;20037;-77
2022/03/13 03:53:00;;;;;;;20.97;12.47;;;;;;;-5.02;87.39;101788.97;5013835;28;20459;-77
2022/03/13 03:55:26;;;;;;;22.73;13.93;;;;;;;-5.18;87.96;101776.13;5031510;28;20032;-76
2022/03/13 03:57:53;;;;;;;19.97;11.70;;;;;;;-5.11;88.59;101797.91;5031622;28;20044;-77
2022/03/13 04:00:23;;;;;;;23.67;12.07;;;;;;;-5.20;88.88;101802.72;5012774;28;20104;-76
2022/03/13 04:02:49;;;;;;;23.17;12.47;;;;;;;-5.50;89.38;101745.44;5031142;28;20484;-77
2022/03/13 04:05:15;;;;;;;20.13;11.77;;;;;;;-5.13;89.69;101794.31;5012711;28;20029;-76
2022/03/13 04:07:40;;;;;;;24.23;14.33;;;;;;;-5.12;89.66;101791.06;4979975;28;20149;-75
2022/03/13 04:10:08;;;;;;;26.63;15.00;;;;;;;-5.08;89.65;101790.72;5030849;28;20025;-75
2022/03/13 04:12:34;;;;;;;26.80;16.73;;;;;;;-5.03;88.85;101782.09;5031344;28;20560;-76
2022/03/13 04:15:01;;;;;;;20.17;11.83;;;;;;;-5.20;88.11;101752.38;5031184;28;20029;-76
2022/03/13 04:17:31;;;;;;;22.00;11.87;;;;;;;-4.92;88.18;101796.88;5031294;28;20442;-77
2022/03/13 04:19:58;;;;;;;18.73;11.20;;;;;;;-4.92;88.65;101789.34;5010805;28;20076;-76
2022/03/13 04:22:23;;;;;;;22.77;11.30;;;;;;;-4.90;88.24;101799.59;5012023;28;20037;-76
2022/03/13 04:24:49;;;;;;;20.37;11.80;;;;;;;-4.96;87.66;101769.53;5011714;28;20045;-76
2022/03/13 04:27:14;;;;;;;21.33;11.97;;;;;;;-4.90;87.56;101770.28;5011943;28;20033;-76
2022/03/13 04:29:41;;;;;;;22.37;12.93;;;;;;;-4.80;87.17;101787.34;5011630;28;20037;-76
2022/03/13 04:32:08;;;;;;;19.93;12.33;;;;;;;-4.87;87.60;101790.78;5011532;28;20030;-76
2022/03/13 04:34:37;;;;;;;24.30;12.67;;;;;;;-5.10;87.81;101774.53;5008417;28;20188;-76
2022/03/13 04:37:03;;;;;;;24.90;14.93;;;;;;;-5.11;88.05;101776.16;5011513;28;20496;-76
2022/03/13 04:39:35;;;;;;;26.47;15.13;;;;;;;-5.12;88.43;101786.03;5011781;28;20033;-75
2022/03/13 04:42:05;;;;;;;22.53;13.77;;;;;;;-5.30;89.33;101770.50;5011675;28;20069;-76
2022/03/13 04:44:32;;;;;;;25.10;14.53;;;;;;;-5.14;89.08;101785.84;5011521;28;20076;-76
2022/03/13 04:46:59;;;;;;;33.93;17.63;;;;;;;-5.22;89.19;101784.94;5011015;28;20029;-76
2022/03/13 04:49:24;;;;;;;29.20;18.03;;;;;;;-5.09;89.63;101804.03;5011546;28;20050;-76
2022/03/13 04:51:50;;;;;;;28.10;16.27;;;;;;;-5.09;89.53;101793.97;5011384;28;20030;-76
2022/03/13 04:54:17;;;;;;;32.17;19.33;;;;;;;-5.11;89.45;101780.28;5011180;28;20037;-75
2022/03/13 04:56:44;;;;;;;33.30;17.97;;;;;;;-4.98;89.46;101800.31;5011175;28;20492;-76
2022/03/13 04:59:10;;;;;;;29.53;17.57;;;;;;;-5.12;89.21;101751.69;5011284;28;20030;-75
2022/03/13 05:01:37;;;;;;;29.13;17.40;;;;;;;-4.73;88.79;101805.00;5011098;28;20022;-76
2022/03/13 05:04:03;;;;;;;32.63;19.17;;;;;;;-4.74;89.10;101807.34;4985675;28;20043;-75
2022/03/13 05:06:28;;;;;;;37.83;23.20;;;;;;;-4.81;89.01;101794.75;4969702;28;20046;-75
2022/03/13 05:08:54;;;;;;;33.40;20.10;;;;;;;-4.64;88.74;101814.41;4953243;28;20039;-76
2022/03/13 05:11:20;;;;;;;26.77;15.80;;;;;;;-4.69;88.67;101801.25;4969546;28;20121;-75
2022/03/13 05:13:46;;;;;;;24.73;15.03;;;;;;;-4.57;88.71;101805.22;4969358;28;20039;-76
2022/03/13 05:16:12;;;;;;;24.43;14.40;;;;;;;-4.55;88.71;101802.88;4969100;28;20134;-76
2022/03/13 05:18:38;;;;;;;26.17;15.37;;;;;;;-4.47;88.86;101821.47;4969554;28;20039;-76
2022/03/13 05:21:04;;;;;;;25.00;14.23;;;;;;;-4.69;89.02;101767.59;4969430;28;20044;-76
2022/03/13 05:23:29;;;;;;;23.77;13.57;;;;;;;-4.68;89.26;101770.28;4969400;28;20046;-76
2022/03/13 05:25:55;;;;;;;24.53;13.63;;;;;;;-4.30;89.26;101823.44;4969392;28;20042;-76
2022/03/13 05:28:20;;;;;;;25.30;14.43;;;;;;;-4.32;89.87;101808.13;4953211;28;20034;-76
2022/03/13 05:30:46;;;;;;;24.07;14.40;;;;;;;-4.45;90.96;101779.66;4968839;28;20050;-76
2022/03/13 05:33:12;;;;;;;23.73;12.97;;;;;;;-4.23;91.78;101829.38;4953261;28;20031;-77
2022/03/13 05:35:38;;;;;;;26.13;13.50;;;;;;;-4.33;92.59;101806.31;4983101;28;20472;-75
2022/03/13 05:38:03;;;;;;;26.63;13.27;;;;;;;-4.28;93.74;101817.84;4993000;28;20037;-75
2022/03/13 05:40:30;;;;;;;23.03;13.30;;;;;;;-4.50;93.87;101755.53;4992771;28;20124;-77
2022/03/13 05:42:58;;;;;;;28.33;14.90;;;;;;;-3.97;92.57;101813.00;5010901;28;20090;-76
2022/03/13 05:45:27;;;;;;;28.93;14.80;;;;;;;-3.80;91.32;101825.94;4992905;28;20503;-76
2022/03/13 05:47:57;;;;;;;29.20;17.77;;;;;;;-3.71;90.48;101825.19;4992589;28;20034;-76
2022/03/13 05:50:25;;;;;;;24.70;15.50;;;;;;;-3.99;89.55;101771.53;5010714;28;20461;-76
2022/03/13 05:52:52;;;;;;;22.43;13.67;;;;;;;-4.01;88.56;101763.81;5010861;28;20033;-76
2022/03/13 05:55:19;;;;;;;21.00;12.80;;;;;;;-3.72;88.60;101818.38;4992677;28;20026;-75
2022/03/13 05:57:44;;;;;;;22.87;12.63;;;;;;;-3.66;88.78;101825.00;5010520;28;20079;-76
2022/03/13 06:00:13;;;;;;;25.87;12.97;;;;;;;-3.56;88.96;101819.41;5010759;28;20454;-76
2022/03/13 06:02:39;;;;;;;17.63;11.27;;;;;;;-3.46;88.73;101827.28;5035992;28;20025;-76
2022/03/13 06:05:07;;;;;;;21.40;13.07;;;;;;;-3.49;88.34;101805.84;5049824;28;20501;-76
2022/03/13 06:07:32;;;;;;;22.60;12.93;;;;;;;-3.86;87.74;101744.47;5032618;28;20610;-76
2022/03/13 06:10:02;;;;;;;20.97;12.07;;;;;;;-3.39;88.09;101821.31;5050085;28;20036;-75
2022/03/13 06:12:30;;;;;;;22.47;12.57;;;;;;;-3.31;87.75;101829.78;5032177;28;20036;-75
2022/03/13 06:14:56;;;;;;;24.67;13.27;;;;;;;-3.36;88.40;101815.75;5032136;28;20033;-75
2022/03/13 06:17:22;;;;;;;19.37;11.93;;;;;;;-3.27;89.23;101806.66;5050136;28;20029;-75
2022/03/13 06:19:48;;;;;;;23.17;13.43;;;;;;;-3.04;88.96;101826.06;5049707;28;20392;-75
2022/03/13 06:22:13;;;;;;;21.23;12.93;;;;;;;-3.00;89.67;101823.16;5049822;28;20094;-75
2022/03/13 06:24:40;;;;;;;22.40;14.33;;;;;;;-2.88;89.50;101829.56;5052967;28;20418;-76
2022/03/13 06:27:10;;;;;;;21.53;12.77;;;;;;;-2.75;88.73;101826.81;5035451;28;20083;-75
2022/03/13 06:29:37;;;;;;;23.30;12.73;;;;;;;-2.62;88.03;101849.28;5035915;28;20028;-75
2022/03/13 06:32:02;;;;;;;37.10;18.30;;;;;;;-2.82;87.23;101794.88;5053757;28;20063;-75
2022/03/13 06:34:28;;;;;;;46.47;24.20;;;;;;;-2.51;87.16;101830.28;5053413;28;20033;-75
2022/03/13 06:36:53;;;;;;;32.27;18.20;;;;;;;-2.48;85.86;101816.34;5053501;28;20041;-75
2022/03/13 06:39:19;;;;;;;21.47;13.20;;;;;;;-2.34;85.46;101822.03;5053434;28;20040;-76
2022/03/13 06:41:44;;;;;;;24.87;14.23;;;;;;;-2.14;85.10;101847.00;5053187;28;20041;-76
2022/03/13 06:44:10;;;;;;;21.40;12.47;;;;;;;-2.05;84.36;101844.56;5053710;28;20068;-75
2022/03/13 06:46:36;;;;;;;19.33;10.83;;;;;;;-2.06;82.28;101832.66;5035491;28;20033;-76
2022/03/13 06:49:22;;;;;;;22.10;13.87;;;;;;;-2.02;82.83;101809.47;5010919;28;20057;-75
2022/03/13 06:51:47;;;;;;;17.93;10.93;;;;;;;-1.72;82.53;101844.81;5011373;28;20052;-76
2022/03/13 06:54:12;;;;;;;16.13;10.20;;;;;;;-1.81;82.07;101819.41;4993313;28;20038;-76
2022/03/13 06:56:39;;;;;;;22.30;11.00;;;;;;;-1.77;80.28;101828.19;5011162;28;20037;-76
2022/03/13 06:59:05;;;;;;;17.40;11.00;;;;;;;-1.63;79.38;101842.38;5011057;28;20060;-75
2022/03/13 07:01:31;;;;;;;16.73;10.03;;;;;;;-1.56;79.46;101841.38;5011050;28;20429;-75
2022/03/13 07:03:57;;;;;;;14.53;9.53;;;;;;;-1.44;77.77;101846.88;5010918;28;20050;-76
2022/03/13 07:06:22;;;;;;;13.90;8.77;;;;;;;-1.35;75.69;101843.69;4994463;28;20496;-76
2022/03/13 07:08:48;;;;;;;13.70;9.40;;;;;;;-1.25;74.57;101837.97;5010618;28;20623;-76
2022/03/13 07:11:15;;;;;;;17.73;9.60;;;;;;;-1.75;75.38;101791.28;5011202;28;20040;-76
2022/03/13 07:13:44;;;;;;;15.27;9.20;;;;;;;-1.37;75.17;101839.19;5010843;28;20030;-76
2022/03/13 07:16:10;;;;;;;14.95;9.20;;;;;;;-1.24;73.87;101843.94;5010669;28;20042;-76
2022/03/13 07:18:37;;;;;;;16.57;9.57;;;;;;;-1.25;74.30;101837.97;5010623;28;20096;-76
2022/03/13 07:21:03;;;;;;;19.03;10.60;;;;;;;-1.05;73.98;101836.66;5006976;28;20515;-76
2022/03/13 07:23:29;;;;;;;21.60;11.57;;;;;;;-1.23;73.67;101782.41;5011598;28;20029;-76
2022/03/13 07:25:54;;;;;;;18.63;10.60;;;;;;;-1.26;73.03;101770.28;5013109;28;20029;-77
2022/03/13 07:28:20;;;;;;;19.60;9.57;;;;;;;-0.61;71.73;101832.78;5013186;28;20030;-76
2022/03/13 07:30:45;;;;;;;16.23;9.63;;;;;;;-0.57;70.68;101809.53;5011864;28;20029;-76
2022/03/13 07:33:11;;;;;;;15.73;9.47;;;;;;;-0.47;71.36;101825.69;5012945;28;20029;-77
2022/03/13 07:35:37;;;;;;;14.90;8.87;;;;;;;-0.15;69.90;101838.25;5011282;28;20029;-78
2022/03/13 07:38:04;;;;;;;16.07;8.83;;;;;;;-0.02;68.61;101815.91;4990355;28;20489;-77
2022/03/13 07:40:29;;;;;;;13.77;8.20;;;;;;;0.12;68.54;101840.16;4990633;28;20537;-77
2022/03/13 07:42:56;;;;;;;14.00;8.53;;;;;;;0.17;68.60;101830.47;4987356;28;20118;-77
2022/03/13 07:45:23;;;;;;;13.50;7.90;;;;;;;-0.04;68.91;101827.53;4988666;28;20030;-77
2022/03/13 07:47:48;;;;;;;15.57;9.23;;;;;;;-0.01;69.84;101807.56;4983923;28;20037;-77
2022/03/13 07:50:14;;;;;;;15.10;9.37;;;;;;;0.32;68.44;101814.22;5024430;28;20057;-78
2022/03/13 07:52:39;;;;;;;20.23;12.07;;;;;;;0.28;66.96;101782.53;5022526;28;20087;-77
2022/03/13 07:55:06;;;;;;;15.57;10.13;;;;;;;0.63;67.56;101817.25;5020297;28;20037;-76
2022/03/13 07:57:31;;;;;;;15.93;9.40;;;;;;;0.65;65.57;101792.91;5008523;28;20029;-77
2022/03/13 07:59:56;;;;;;;14.23;8.47;;;;;;;0.91;64.94;101812.31;5031650;28;20461;-77
2022/03/13 08:02:22;;;;;;;13.47;9.10;;;;;;;0.97;64.60;101807.84;5032524;28;20083;-77
2022/03/13 08:04:47;;;;;;;12.93;7.67;;;;;;;0.47;65.67;101805.59;5026955;28;20045;-76
2022/03/13 08:07:13;;;;;;;12.27;7.70;;;;;;;0.37;65.20;101805.41;5031901;28;20029;-76
2022/03/13 08:09:39;;;;;;;10.57;6.80;;;;;;;0.52;65.10;101823.81;5031627;28;20033;-76
2022/03/13 08:12:05;;;;;;;13.00;8.20;;;;;;;0.34;65.74;101800.03;5031572;28;20030;-76
2022/03/13 08:14:31;;;;;;;12.73;7.70;;;;;;;0.48;64.89;101797.19;5031138;28;20037;-76
2022/03/13 08:16:57;;;;;;;11.27;7.60;;;;;;;0.82;64.39;101814.88;5031244;28;20036;-76
2022/03/13 08:19:42;;;;;;;11.00;6.93;;;;;;;1.02;63.23;101810.81;5030860;28;20033;-76
2022/03/13 08:22:08;;;;;;;11.60;7.50;;;;;;;1.11;63.47;101806.66;4982605;28;20493;-76
2022/03/13 08:24:33;;;;;;;18.20;10.87;;;;;;;1.22;61.92;101806.03;4988658;28;20046;-76
2022/03/13 08:26:58;;;;;;;15.50;10.20;;;;;;;1.06;62.33;101785.84;4987124;28;20070;-76
2022/03/13 08:29:24;;;;;;;22.03;14.47;;;;;;;0.91;62.07;101785.25;4972910;28;20041;-76
2022/03/13 08:31:49;;;;;;;26.07;17.23;;;;;;;0.87;62.38;101795.88;4989272;28;20032;-76
2022/03/13 08:34:16;;;;;;;9.43;5.80;;;;;;;0.88;61.35;101810.38;4972505;28;20568;-76
2022/03/13 08:36:48;;;;;;;10.40;6.50;;;;;;;0.79;61.71;101804.41;4989371;28;20030;-76
2022/03/13 08:39:14;;;;;;;10.37;7.27;;;;;;;1.10;61.68;101809.94;4985392;28;20045;-76
2022/03/13 08:41:41;;;;;;;9.77;6.77;;;;;;;1.31;59.32;101795.84;4985862;28;20034;-76
2022/03/13 08:44:08;;;;;;;10.50;7.03;;;;;;;1.63;60.79;101797.97;4988898;28;20034;-76
2022/03/13 08:46:34;;;;;;;11.10;6.30;;;;;;;1.71;59.46;101796.19;5002437;28;20128;-76
2022/03/13 08:48:59;;;;;;;12.10;7.47;;;;;;;1.66;58.90;101802.44;4987756;28;20069;-76
2022/03/13 08:51:27;;;;;;;9.83;6.87;;;;;;;1.87;58.99;101784.13;4986826;28;20026;-77
2022/03/13 08:53:53;;;;;;;12.10;7.33;;;;;;;1.71;58.89;101763.97;4998163;28;20147;-76
2022/03/13 08:56:19;;;;;;;10.87;6.63;;;;;;;2.29;56.61;101792.13;5008904;28;20577;-76
2022/03/13 08:58:45;;;;;;;11.03;6.97;;;;;;;2.07;57.59;101783.41;5015899;28;20075;-77
2022/03/13 09:01:12;;;;;;;13.23;7.00;;;;;;;2.07;58.51;101746.88;5050746;28;20404;-76
2022/03/13 09:03:37;;;;;;;10.63;6.60;;;;;;;2.21;57.78;101773.59;5032187;28;20045;-77
2022/03/13 09:06:03;;;;;;;9.13;6.07;;;;;;;2.02;57.39;101722.59;5030704;28;20443;-77
2022/03/13 09:08:29;;;;;;;12.33;6.60;;;;;;;2.68;57.84;101786.28;5013375;28;20476;-78
2022/03/13 09:10:55;;;;;;;9.17;6.20;;;;;;;2.65;56.09;101769.06;5030955;28;20473;-77
2022/03/13 09:13:21;;;;;;;10.37;7.17;;;;;;;2.69;56.27;101763.50;5030649;28;20068;-76
2022/03/13 09:15:48;;;;;;;9.50;6.50;;;;;;;3.17;54.87;101777.03;5030103;28;20444;-77
2022/03/13 09:18:14;;;;;;;45.93;27.73;;;;;;;3.30;53.47;101773.88;5030844;28;20033;-77
2022/03/13 09:20:40;;;;;;;9.60;5.87;;;;;;;3.42;51.27;101753.63;5030377;28;20037;-77
2022/03/13 09:23:08;;;;;;;12.67;9.23;;;;;;;3.46;52.13;101760.78;5030296;28;20494;-77
2022/03/13 09:25:36;;;;;;;9.87;6.53;;;;;;;3.66;52.05;101765.06;5030648;28;20068;-76
2022/03/13 09:28:03;;;;;;;12.70;8.03;;;;;;;3.34;51.75;101746.22;5030600;28;20030;-77
2022/03/13 09:30:28;;;;;;;11.02;7.72;;;;;;;3.82;50.73;101755.38;5030541;28;20033;-77
2022/03/13 09:32:54;;;;;;;9.57;5.88;;;;;;;3.74;50.01;101751.28;5030191;28;20083;-77
2022/03/13 09:35:19;;;;;;;9.00;5.80;;;;;;;3.67;49.17;101741.31;5029696;28;20110;-76
2022/03/13 09:37:45;;;;;;;7.90;5.85;;;;;;;3.42;48.65;101753.63;5030633;28;20092;-77
2022/03/13 09:40:13;;;;;;;10.35;5.07;;;;;;;3.55;49.53;101762.47;5012804;28;20484;-77
2022/03/13 09:42:39;;;;;;;10.95;5.45;;;;;;;3.62;48.92;101755.34;4979122;28;20044;-78
2022/03/13 09:45:05;;;;;;;9.70;5.13;;;;;;;3.81;49.83;101747.59;5030147;28;20123;-75
2022/03/13 09:47:32;;;;;;;7.22;3.53;;;;;;;3.61;48.82;101702.47;5030181;28;20045;-75
2022/03/13 09:49:57;;;;;;;7.30;4.72;;;;;;;4.29;47.62;101752.47;5030141;28;20053;-76
2022/03/13 09:52:23;;;;;;;6.47;4.28;;;;;;;4.64;42.55;101735.69;5030458;28;20037;-76
2022/03/13 09:54:49;;;;;;;15.98;7.80;;;;;;;4.70;43.41;101728.50;5030073;28;20030;-76
2022/03/13 09:57:14;;;;;;;7.78;4.45;;;;;;;5.04;43.17;101725.19;4995002;28;20069;-76
2022/03/13 09:59:46;;;;;;;11.85;6.60;;;;;;;5.14;42.79;101720.03;5033331;28;20033;-75
2022/03/13 10:02:11;;;;;;;6.53;4.40;;;;;;;5.00;41.34;101696.78;5033707;28;20524;-76
2022/03/13 10:04:37;;;;;;;8.32;4.68;;;;;;;5.13;39.75;101714.00;5016648;28;20034;-76
2022/03/13 10:07:08;;;;;;;7.80;4.07;;;;;;;5.34;39.84;101708.78;5034340;28;20029;-76
2022/03/13 10:09:36;;;;;;;8.20;4.95;;;;;;;5.30;39.52;101688.84;5034192;28;20033;-76
2022/03/13 10:12:18;;;;;;;28.95;14.77;;;;;;;5.62;38.86;101699.00;5028120;28;20538;-78
2022/03/13 10:15:00;;;;;;;45.35;26.63;;;;;;;5.63;40.12;101695.69;5032494;28;20036;-78
2022/03/13 10:17:30;;;;;;;31.25;18.23;;;;;;;5.28;39.27;101677.59;5030613;28;20041;-75
2022/03/13 10:20:14;;;;;;;13.93;7.25;;;;;;;5.53;38.46;101702.53;5027826;28;20065;-79
2022/03/13 10:22:42;;;;;;;17.02;9.77;;;;;;;5.19;38.77;101673.53;5053989;28;20113;-77
2022/03/13 10:25:07;;;;;;;17.73;10.00;;;;;;;5.18;38.75;101693.88;5054095;28;20033;-77
2022/03/13 10:27:33;;;;;;;12.38;7.75;;;;;;;5.31;39.33;101676.16;5053943;28;20029;-77
2022/03/13 10:30:07;;;;;;;8.75;5.43;;;;;;;5.95;35.96;101683.53;5015312;28;20095;-77
2022/03/13 10:32:32;;;;;;;10.10;6.05;;;;;;;5.33;37.87;101619.94;5014023;28;20040;-78
2022/03/13 10:34:58;;;;;;;38.53;18.33;;;;;;;5.90;37.63;101651.53;5014101;28;20034;-77
2022/03/13 10:37:41;;;;;;;8.27;5.85;;;;;;;5.29;37.99;101634.16;5014366;28;20138;-77
2022/03/13 10:40:18;;;;;;;9.15;5.15;;;;;;;5.49;36.15;101657.84;5014099;28;20025;-76
2022/03/13 10:42:43;;;;;;;17.98;10.68;;;;;;;5.72;36.35;101664.75;5014102;28;20076;-76
2022/03/13 10:45:15;;;;;;;16.02;9.68;;;;;;;6.03;35.78;101655.91;5013986;28;20083;-77
2022/03/13 10:47:41;;;;;;;10.55;6.80;;;;;;;5.81;36.42;101611.59;5014002;28;20471;-77
2022/03/13 10:50:07;;;;;;;11.45;5.05;;;;;;;6.35;34.05;101630.09;5013912;28;20077;-77
2022/03/13 10:52:45;;;;;;;10.15;5.60;;;;;;;6.66;35.50;101664.78;5013987;28;20117;-79
2022/03/13 10:55:24;;;;;;;7.67;4.43;;;;;;;6.33;34.40;101662.44;4991491;28;20077;-78
2022/03/13 10:57:55;;;;;;;7.25;4.32;;;;;;;6.11;33.48;101645.44;4991587;28;20428;-78
2022/03/13 11:00:22;;;;;;;7.93;4.22;;;;;;;6.25;34.93;101638.78;5009696;28;20047;-76
2022/03/13 11:02:51;;;;;;;10.07;4.68;;;;;;;6.53;35.78;101630.53;5023797;28;20468;-78
2022/03/13 11:05:17;;;;;;;7.80;4.38;;;;;;;6.87;33.19;101632.94;5031080;28;20512;-79
2022/03/13 11:07:42;;;;;;;7.95;4.38;;;;;;;6.95;32.56;101628.31;5022129;28;20068;-76
2022/03/13 11:10:11;;;;;;;8.15;4.72;;;;;;;7.23;31.95;101636.28;5017083;28;20043;-77
2022/03/13 11:12:39;;;;;;;7.38;4.65;;;;;;;7.18;31.29;101606.84;5023412;28;20033;-77
2022/03/13 11:15:08;;;;;;;7.30;5.10;;;;;;;7.43;30.46;101629.06;5030739;28;20132;-77
2022/03/13 11:17:34;;;;;;;7.53;4.80;;;;;;;7.52;30.51;101623.66;5030650;28;20036;-76